Main page
METAR-TAF:

METAR-TAF

Airports :

Formosa International Airport

Formosa, Argentina

latitude: 26-12S, longitude: 058-14W, elevation: 59 m

Current weather observation

The report was made 53 minutes ago, at 16:00 UTC
Wind 5 kt from the Southeast
Temperature 29°C
Humidity 35%
Pressure 1013 hPa
Visibility 10 km or more
Few clouds at a height of 2500 ft

METAR: SARF 211600Z 14005KT 9999 FEW025 29/12 Q1013

Time: 13:53 (16:53 UTC)

Forecast

The report was made 5 hours and 53 minutes ago, at 11:00 UTC
Forecast valid from 21 at 12 UTC to 22 at 12 UTC
Wind 5 kt from the Southeast
Visibility 10 km or more
no clouds below 1500 m and no cumulonimbus

TAF: SARF 211100Z 2112/2212 14005KT CAVOK TX32/2119Z TN16/2210Z

Weather observations and forecasts of more than 4000 airports (METAR and TAF reports).

The available stations are represented by yellow and red dots on the map.

Hover mouse over dot to see the name of the station.

Then click to see weather observations and forecasts.

To change the map : click on the green buttons with a black cross to zoom in, on the green button with a dash to zoom out, or on the green arrows for adjacent maps.


METAR-TAF: